sensor_id;sensor_type;location;lat;lon;timestamp;P1;durP1;ratioP1;P2;durP2;ratioP2
16266;SDS011;8241;48.786;9.250;2022-09-02T00:01:12;0.70;;;0.70;;
16266;SDS011;8241;48.786;9.250;2022-09-02T00:06:12;1.20;;;1.20;;
16266;SDS011;8241;48.786;9.250;2022-09-02T00:08:41;1.17;;;1.17;;
16266;SDS011;8241;48.786;9.250;2022-09-02T00:11:12;0.77;;;0.77;;
16266;SDS011;8241;48.786;9.250;2022-09-02T00:13:40;1.33;;;1.20;;
16266;SDS011;8241;48.786;9.250;2022-09-02T00:16:08;0.70;;;0.70;;
16266;SDS011;8241;48.786;9.250;2022-09-02T00:18:35;3.17;;;1.47;;
16266;SDS011;8241;48.786;9.250;2022-09-02T00:21:03;1.17;;;1.07;;
16266;SDS011;8241;48.786;9.250;2022-09-02T00:23:30;1.03;;;1.03;;
16266;SDS011;8241;48.786;9.250;2022-09-02T00:25:58;0.93;;;0.93;;
16266;SDS011;8241;48.786;9.250;2022-09-02T00:28:26;0.60;;;0.60;;
16266;SDS011;8241;48.786;9.250;2022-09-02T00:33:27;1.23;;;1.23;;
16266;SDS011;8241;48.786;9.250;2022-09-02T00:35:58;0.87;;;0.87;;
16266;SDS011;8241;48.786;9.250;2022-09-02T00:38:27;0.90;;;0.90;;
16266;SDS011;8241;48.786;9.250;2022-09-02T00:41:06;1.27;;;1.20;;
16266;SDS011;8241;48.786;9.250;2022-09-02T00:43:42;1.53;;;1.47;;
16266;SDS011;8241;48.786;9.250;2022-09-02T00:46:17;2.27;;;1.27;;
16266;SDS011;8241;48.786;9.250;2022-09-02T00:48:48;0.80;;;0.80;;
16266;SDS011;8241;48.786;9.250;2022-09-02T00:51:31;1.50;;;1.40;;
16266;SDS011;8241;48.786;9.250;2022-09-02T00:54:02;1.00;;;0.90;;
16266;SDS011;8241;48.786;9.250;2022-09-02T00:56:32;1.30;;;1.30;;
16266;SDS011;8241;48.786;9.250;2022-09-02T00:59:03;0.87;;;0.87;;
16266;SDS011;8241;48.786;9.250;2022-09-02T01:01:31;1.27;;;1.17;;
16266;SDS011;8241;48.786;9.250;2022-09-02T01:03:58;0.83;;;0.83;;
16266;SDS011;8241;48.786;9.250;2022-09-02T01:06:26;1.00;;;1.00;;
16266;SDS011;8241;48.786;9.250;2022-09-02T01:09:03;1.37;;;1.20;;
16266;SDS011;8241;48.786;9.250;2022-09-02T01:11:39;1.67;;;1.57;;
16266;SDS011;8241;48.786;9.250;2022-09-02T01:14:12;1.03;;;1.03;;
16266;SDS011;8241;48.786;9.250;2022-09-02T01:16:41;0.90;;;0.90;;
16266;SDS011;8241;48.786;9.250;2022-09-02T01:19:16;1.10;;;1.10;;
16266;SDS011;8241;48.786;9.250;2022-09-02T01:24:24;1.50;;;1.47;;
16266;SDS011;8241;48.786;9.250;2022-09-02T01:26:57;1.03;;;1.00;;
16266;SDS011;8241;48.786;9.250;2022-09-02T01:29:25;0.90;;;0.90;;
16266;SDS011;8241;48.786;9.250;2022-09-02T01:31:53;1.03;;;1.03;;
16266;SDS011;8241;48.786;9.250;2022-09-02T01:34:20;1.57;;;1.53;;
16266;SDS011;8241;48.786;9.250;2022-09-02T01:36:51;0.80;;;0.80;;
16266;SDS011;8241;48.786;9.250;2022-09-02T01:39:19;1.63;;;1.53;;
16266;SDS011;8241;48.786;9.250;2022-09-02T01:41:48;1.87;;;1.77;;
16266;SDS011;8241;48.786;9.250;2022-09-02T01:44:21;1.13;;;0.90;;
16266;SDS011;8241;48.786;9.250;2022-09-02T01:46:51;1.00;;;1.00;;
16266;SDS011;8241;48.786;9.250;2022-09-02T01:49:18;1.20;;;1.10;;
16266;SDS011;8241;48.786;9.250;2022-09-02T01:51:46;1.00;;;1.00;;
16266;SDS011;8241;48.786;9.250;2022-09-02T01:54:15;1.33;;;1.33;;
16266;SDS011;8241;48.786;9.250;2022-09-02T01:56:44;0.90;;;0.90;;
16266;SDS011;8241;48.786;9.250;2022-09-02T01:59:11;1.13;;;1.10;;
16266;SDS011;8241;48.786;9.250;2022-09-02T02:01:47;0.80;;;0.80;;
16266;SDS011;8241;48.786;9.250;2022-09-02T02:04:16;0.80;;;0.80;;
16266;SDS011;8241;48.786;9.250;2022-09-02T02:06:47;1.07;;;0.90;;
16266;SDS011;8241;48.786;9.250;2022-09-02T02:09:15;1.13;;;1.13;;
16266;SDS011;8241;48.786;9.250;2022-09-02T02:11:52;0.80;;;0.80;;
16266;SDS011;8241;48.786;9.250;2022-09-02T02:14:20;1.37;;;1.37;;
16266;SDS011;8241;48.786;9.250;2022-09-02T02:16:48;1.00;;;1.00;;
16266;SDS011;8241;48.786;9.250;2022-09-02T02:19:16;1.17;;;1.07;;
16266;SDS011;8241;48.786;9.250;2022-09-02T02:21:43;0.90;;;0.90;;
16266;SDS011;8241;48.786;9.250;2022-09-02T02:24:10;0.97;;;0.97;;
16266;SDS011;8241;48.786;9.250;2022-09-02T02:26:37;1.47;;;1.37;;
16266;SDS011;8241;48.786;9.250;2022-09-02T02:29:08;1.00;;;1.00;;
16266;SDS011;8241;48.786;9.250;2022-09-02T02:31:40;1.63;;;1.43;;
16266;SDS011;8241;48.786;9.250;2022-09-02T02:34:12;0.70;;;0.70;;
16266;SDS011;8241;48.786;9.250;2022-09-02T02:36:40;1.20;;;1.20;;
16266;SDS011;8241;48.786;9.250;2022-09-02T02:39:09;1.20;;;1.13;;
16266;SDS011;8241;48.786;9.250;2022-09-02T02:41:37;1.57;;;1.47;;
16266;SDS011;8241;48.786;9.250;2022-09-02T02:44:06;1.53;;;1.43;;
16266;SDS011;8241;48.786;9.250;2022-09-02T02:46:38;1.10;;;1.10;;
16266;SDS011;8241;48.786;9.250;2022-09-02T02:49:06;0.73;;;0.73;;
16266;SDS011;8241;48.786;9.250;2022-09-02T02:51:33;1.20;;;1.10;;
16266;SDS011;8241;48.786;9.250;2022-09-02T02:54:02;0.97;;;0.97;;
16266;SDS011;8241;48.786;9.250;2022-09-02T02:56:30;1.37;;;1.33;;
16266;SDS011;8241;48.786;9.250;2022-09-02T02:59:00;2.10;;;1.37;;
16266;SDS011;8241;48.786;9.250;2022-09-02T03:01:30;1.03;;;1.03;;
16266;SDS011;8241;48.786;9.250;2022-09-02T03:04:01;0.90;;;0.90;;
16266;SDS011;8241;48.786;9.250;2022-09-02T03:06:30;1.20;;;1.10;;
16266;SDS011;8241;48.786;9.250;2022-09-02T03:08:58;0.80;;;0.80;;
16266;SDS011;8241;48.786;9.250;2022-09-02T03:11:27;0.93;;;0.93;;
16266;SDS011;8241;48.786;9.250;2022-09-02T03:13:57;0.90;;;0.90;;
16266;SDS011;8241;48.786;9.250;2022-09-02T03:16:24;0.80;;;0.80;;
16266;SDS011;8241;48.786;9.250;2022-09-02T03:18:58;1.00;;;1.00;;
16266;SDS011;8241;48.786;9.250;2022-09-02T03:21:25;1.03;;;1.03;;
16266;SDS011;8241;48.786;9.250;2022-09-02T03:23:52;0.90;;;0.90;;
16266;SDS011;8241;48.786;9.250;2022-09-02T03:26:21;1.90;;;1.10;;
16266;SDS011;8241;48.786;9.250;2022-09-02T03:28:50;1.27;;;1.23;;
16266;SDS011;8241;48.786;9.250;2022-09-02T03:31:23;1.60;;;1.50;;
16266;SDS011;8241;48.786;9.250;2022-09-02T03:33:54;1.20;;;1.10;;
16266;SDS011;8241;48.786;9.250;2022-09-02T03:36:24;1.00;;;1.00;;
16266;SDS011;8241;48.786;9.250;2022-09-02T03:38:56;1.17;;;1.17;;
16266;SDS011;8241;48.786;9.250;2022-09-02T03:41:28;1.10;;;1.10;;
16266;SDS011;8241;48.786;9.250;2022-09-02T03:43:57;0.90;;;0.90;;
16266;SDS011;8241;48.786;9.250;2022-09-02T03:46:27;0.97;;;0.97;;
16266;SDS011;8241;48.786;9.250;2022-09-02T03:49:06;1.03;;;1.03;;
16266;SDS011;8241;48.786;9.250;2022-09-02T03:51:38;0.93;;;0.93;;
16266;SDS011;8241;48.786;9.250;2022-09-02T03:54:06;1.60;;;1.43;;
16266;SDS011;8241;48.786;9.250;2022-09-02T03:56:34;2.10;;;1.80;;
16266;SDS011;8241;48.786;9.250;2022-09-02T03:59:02;2.07;;;1.97;;
16266;SDS011;8241;48.786;9.250;2022-09-02T04:01:30;1.07;;;1.07;;
16266;SDS011;8241;48.786;9.250;2022-09-02T04:03:57;2.67;;;1.00;;
16266;SDS011;8241;48.786;9.250;2022-09-02T04:06:25;0.70;;;0.70;;
16266;SDS011;8241;48.786;9.250;2022-09-02T04:08:55;1.20;;;1.20;;
16266;SDS011;8241;48.786;9.250;2022-09-02T04:11:22;1.17;;;1.17;;
16266;SDS011;8241;48.786;9.250;2022-09-02T04:13:52;1.70;;;1.63;;
16266;SDS011;8241;48.786;9.250;2022-09-02T04:16:23;0.80;;;0.80;;
16266;SDS011;8241;48.786;9.250;2022-09-02T04:18:54;1.30;;;1.30;;
16266;SDS011;8241;48.786;9.250;2022-09-02T04:21:23;1.07;;;1.07;;
16266;SDS011;8241;48.786;9.250;2022-09-02T04:23:50;2.07;;;1.77;;
16266;SDS011;8241;48.786;9.250;2022-09-02T04:26:20;1.00;;;1.00;;
16266;SDS011;8241;48.786;9.250;2022-09-02T04:28:51;1.33;;;1.27;;
16266;SDS011;8241;48.786;9.250;2022-09-02T04:31:20;0.90;;;0.90;;
16266;SDS011;8241;48.786;9.250;2022-09-02T04:33:51;1.27;;;1.17;;
16266;SDS011;8241;48.786;9.250;2022-09-02T04:36:21;1.00;;;1.00;;
16266;SDS011;8241;48.786;9.250;2022-09-02T04:38:51;1.43;;;1.03;;
16266;SDS011;8241;48.786;9.250;2022-09-02T04:41:25;1.37;;;1.33;;
16266;SDS011;8241;48.786;9.250;2022-09-02T04:43:57;0.80;;;0.80;;
16266;SDS011;8241;48.786;9.250;2022-09-02T04:46:29;0.70;;;0.70;;
16266;SDS011;8241;48.786;9.250;2022-09-02T04:48:56;1.37;;;1.33;;
16266;SDS011;8241;48.786;9.250;2022-09-02T04:51:24;1.20;;;1.20;;
16266;SDS011;8241;48.786;9.250;2022-09-02T04:53:56;1.57;;;1.30;;
16266;SDS011;8241;48.786;9.250;2022-09-02T04:56:26;2.43;;;1.50;;
16266;SDS011;8241;48.786;9.250;2022-09-02T04:58:56;1.40;;;1.30;;
16266;SDS011;8241;48.786;9.250;2022-09-02T05:01:24;1.00;;;1.00;;
16266;SDS011;8241;48.786;9.250;2022-09-02T05:03:54;1.53;;;1.20;;
16266;SDS011;8241;48.786;9.250;2022-09-02T05:06:27;0.90;;;0.90;;
16266;SDS011;8241;48.786;9.250;2022-09-02T05:08:58;0.90;;;0.90;;
16266;SDS011;8241;48.786;9.250;2022-09-02T05:11:31;1.07;;;1.07;;
16266;SDS011;8241;48.786;9.250;2022-09-02T05:14:00;0.90;;;0.90;;
16266;SDS011;8241;48.786;9.250;2022-09-02T05:16:31;0.70;;;0.70;;
16266;SDS011;8241;48.786;9.250;2022-09-02T05:19:01;1.13;;;1.13;;
16266;SDS011;8241;48.786;9.250;2022-09-02T05:21:37;0.80;;;0.80;;
16266;SDS011;8241;48.786;9.250;2022-09-02T05:24:05;1.03;;;1.03;;
16266;SDS011;8241;48.786;9.250;2022-09-02T05:26:34;1.40;;;1.40;;
16266;SDS011;8241;48.786;9.250;2022-09-02T05:29:02;0.80;;;0.80;;
16266;SDS011;8241;48.786;9.250;2022-09-02T05:31:32;0.80;;;0.80;;
16266;SDS011;8241;48.786;9.250;2022-09-02T05:33:59;1.23;;;1.20;;
16266;SDS011;8241;48.786;9.250;2022-09-02T05:36:26;1.20;;;1.20;;
16266;SDS011;8241;48.786;9.250;2022-09-02T05:38:54;0.90;;;0.90;;
16266;SDS011;8241;48.786;9.250;2022-09-02T05:41:22;1.27;;;1.20;;
16266;SDS011;8241;48.786;9.250;2022-09-02T05:43:55;6.00;;;2.07;;
16266;SDS011;8241;48.786;9.250;2022-09-02T05:46:23;1.10;;;1.10;;
16266;SDS011;8241;48.786;9.250;2022-09-02T05:48:53;0.70;;;0.70;;
16266;SDS011;8241;48.786;9.250;2022-09-02T05:51:44;2.23;;;1.63;;
16266;SDS011;8241;48.786;9.250;2022-09-02T05:54:17;1.30;;;1.20;;
16266;SDS011;8241;48.786;9.250;2022-09-02T05:56:47;0.80;;;0.80;;
16266;SDS011;8241;48.786;9.250;2022-09-02T05:59:19;0.93;;;0.93;;
16266;SDS011;8241;48.786;9.250;2022-09-02T06:01:46;1.00;;;1.00;;
16266;SDS011;8241;48.786;9.250;2022-09-02T06:04:14;0.90;;;0.90;;
16266;SDS011;8241;48.786;9.250;2022-09-02T06:06:44;0.80;;;0.80;;
16266;SDS011;8241;48.786;9.250;2022-09-02T06:09:16;0.70;;;0.70;;
16266;SDS011;8241;48.786;9.250;2022-09-02T06:11:46;0.90;;;0.90;;
16266;SDS011;8241;48.786;9.250;2022-09-02T06:14:24;0.70;;;0.70;;
16266;SDS011;8241;48.786;9.250;2022-09-02T06:16:55;0.70;;;0.70;;
16266;SDS011;8241;48.786;9.250;2022-09-02T06:19:39;1.07;;;1.07;;
16266;SDS011;8241;48.786;9.250;2022-09-02T06:22:06;0.70;;;0.70;;
16266;SDS011;8241;48.786;9.250;2022-09-02T06:24:37;0.90;;;0.87;;
16266;SDS011;8241;48.786;9.250;2022-09-02T06:27:08;1.17;;;1.07;;
16266;SDS011;8241;48.786;9.250;2022-09-02T06:29:39;1.37;;;1.07;;
16266;SDS011;8241;48.786;9.250;2022-09-02T06:32:08;1.07;;;1.07;;
16266;SDS011;8241;48.786;9.250;2022-09-02T06:34:35;0.90;;;0.90;;
16266;SDS011;8241;48.786;9.250;2022-09-02T06:37:04;0.87;;;0.87;;
16266;SDS011;8241;48.786;9.250;2022-09-02T06:39:37;0.97;;;0.97;;
16266;SDS011;8241;48.786;9.250;2022-09-02T06:42:08;1.07;;;1.07;;
16266;SDS011;8241;48.786;9.250;2022-09-02T06:44:45;0.83;;;0.83;;
16266;SDS011;8241;48.786;9.250;2022-09-02T06:47:14;1.07;;;1.07;;
16266;SDS011;8241;48.786;9.250;2022-09-02T06:49:47;1.17;;;1.17;;
16266;SDS011;8241;48.786;9.250;2022-09-02T06:52:18;1.27;;;1.23;;
16266;SDS011;8241;48.786;9.250;2022-09-02T06:54:46;2.93;;;2.67;;
16266;SDS011;8241;48.786;9.250;2022-09-02T06:57:15;1.23;;;1.23;;
16266;SDS011;8241;48.786;9.250;2022-09-02T06:59:46;0.67;;;0.67;;
16266;SDS011;8241;48.786;9.250;2022-09-02T07:02:15;11.02;;;2.58;;
16266;SDS011;8241;48.786;9.250;2022-09-02T07:04:44;1.00;;;1.00;;
16266;SDS011;8241;48.786;9.250;2022-09-02T07:07:30;0.70;;;0.70;;
16266;SDS011;8241;48.786;9.250;2022-09-02T07:10:06;1.10;;;1.10;;
16266;SDS011;8241;48.786;9.250;2022-09-02T07:12:35;0.60;;;0.60;;
16266;SDS011;8241;48.786;9.250;2022-09-02T07:15:08;1.30;;;1.20;;
16266;SDS011;8241;48.786;9.250;2022-09-02T07:17:38;0.55;;;0.55;;
16266;SDS011;8241;48.786;9.250;2022-09-02T07:20:09;0.65;;;0.65;;
16266;SDS011;8241;48.786;9.250;2022-09-02T07:22:41;0.60;;;0.60;;
16266;SDS011;8241;48.786;9.250;2022-09-02T07:25:11;1.63;;;1.02;;
16266;SDS011;8241;48.786;9.250;2022-09-02T07:27:38;1.08;;;0.93;;
16266;SDS011;8241;48.786;9.250;2022-09-02T07:30:05;1.35;;;1.25;;
16266;SDS011;8241;48.786;9.250;2022-09-02T07:32:38;0.70;;;0.70;;
16266;SDS011;8241;48.786;9.250;2022-09-02T07:35:07;0.75;;;0.75;;
16266;SDS011;8241;48.786;9.250;2022-09-02T07:37:35;0.68;;;0.55;;
16266;SDS011;8241;48.786;9.250;2022-09-02T07:40:05;0.52;;;0.52;;
16266;SDS011;8241;48.786;9.250;2022-09-02T07:42:35;0.70;;;0.70;;
16266;SDS011;8241;48.786;9.250;2022-09-02T07:45:03;0.93;;;0.93;;
16266;SDS011;8241;48.786;9.250;2022-09-02T07:47:31;0.82;;;0.82;;
16266;SDS011;8241;48.786;9.250;2022-09-02T07:49:59;0.63;;;0.63;;
16266;SDS011;8241;48.786;9.250;2022-09-02T07:52:28;0.77;;;0.77;;
16266;SDS011;8241;48.786;9.250;2022-09-02T07:54:55;0.73;;;0.73;;
16266;SDS011;8241;48.786;9.250;2022-09-02T07:57:23;0.57;;;0.57;;
16266;SDS011;8241;48.786;9.250;2022-09-02T07:59:52;9.93;;;0.98;;
16266;SDS011;8241;48.786;9.250;2022-09-02T08:02:20;0.60;;;0.60;;
16266;SDS011;8241;48.786;9.250;2022-09-02T08:04:48;0.60;;;0.60;;
16266;SDS011;8241;48.786;9.250;2022-09-02T08:07:17;1.00;;;1.00;;
16266;SDS011;8241;48.786;9.250;2022-09-02T08:09:48;0.80;;;0.80;;
16266;SDS011;8241;48.786;9.250;2022-09-02T08:12:16;1.23;;;1.15;;
16266;SDS011;8241;48.786;9.250;2022-09-02T08:14:44;0.70;;;0.70;;
16266;SDS011;8241;48.786;9.250;2022-09-02T08:17:11;0.90;;;0.90;;
16266;SDS011;8241;48.786;9.250;2022-09-02T08:19:38;1.00;;;1.00;;
16266;SDS011;8241;48.786;9.250;2022-09-02T08:22:05;0.90;;;0.90;;
16266;SDS011;8241;48.786;9.250;2022-09-02T08:24:33;1.23;;;1.15;;
16266;SDS011;8241;48.786;9.250;2022-09-02T08:27:00;0.90;;;0.90;;
16266;SDS011;8241;48.786;9.250;2022-09-02T08:29:27;1.45;;;1.35;;
16266;SDS011;8241;48.786;9.250;2022-09-02T08:31:55;0.95;;;0.95;;
16266;SDS011;8241;48.786;9.250;2022-09-02T08:34:22;0.70;;;0.70;;
16266;SDS011;8241;48.786;9.250;2022-09-02T08:36:49;0.70;;;0.70;;
16266;SDS011;8241;48.786;9.250;2022-09-02T08:39:17;0.90;;;0.90;;
16266;SDS011;8241;48.786;9.250;2022-09-02T08:41:49;1.25;;;1.25;;
16266;SDS011;8241;48.786;9.250;2022-09-02T08:44:24;0.88;;;0.88;;
16266;SDS011;8241;48.786;9.250;2022-09-02T08:46:53;0.82;;;0.82;;
16266;SDS011;8241;48.786;9.250;2022-09-02T08:49:26;0.80;;;0.80;;
16266;SDS011;8241;48.786;9.250;2022-09-02T08:51:56;0.77;;;0.77;;
16266;SDS011;8241;48.786;9.250;2022-09-02T08:54:26;0.70;;;0.70;;
16266;SDS011;8241;48.786;9.250;2022-09-02T08:57:00;0.60;;;0.60;;
16266;SDS011;8241;48.786;9.250;2022-09-02T08:59:28;0.70;;;0.70;;
16266;SDS011;8241;48.786;9.250;2022-09-02T09:01:59;0.75;;;0.75;;
16266;SDS011;8241;48.786;9.250;2022-09-02T09:04:43;0.73;;;0.73;;
16266;SDS011;8241;48.786;9.250;2022-09-02T09:07:27;0.88;;;0.88;;
16266;SDS011;8241;48.786;9.250;2022-09-02T09:10:05;0.90;;;0.90;;
16266;SDS011;8241;48.786;9.250;2022-09-02T09:12:53;1.10;;;1.10;;
16266;SDS011;8241;48.786;9.250;2022-09-02T09:15:30;0.70;;;0.70;;
16266;SDS011;8241;48.786;9.250;2022-09-02T09:18:06;0.80;;;0.80;;
16266;SDS011;8241;48.786;9.250;2022-09-02T09:20:37;0.80;;;0.80;;
16266;SDS011;8241;48.786;9.250;2022-09-02T09:23:08;1.23;;;1.23;;
16266;SDS011;8241;48.786;9.250;2022-09-02T09:25:47;0.95;;;0.95;;
16266;SDS011;8241;48.786;9.250;2022-09-02T09:28:21;0.98;;;0.98;;
16266;SDS011;8241;48.786;9.250;2022-09-02T09:33:56;1.48;;;1.42;;
16266;SDS011;8241;48.786;9.250;2022-09-02T09:39:30;0.80;;;0.80;;
16266;SDS011;8241;48.786;9.250;2022-09-02T09:42:02;0.80;;;0.80;;
16266;SDS011;8241;48.786;9.250;2022-09-02T09:44:45;0.85;;;0.85;;
16266;SDS011;8241;48.786;9.250;2022-09-02T09:49:53;0.90;;;0.90;;
16266;SDS011;8241;48.786;9.250;2022-09-02T09:52:36;0.85;;;0.85;;
16266;SDS011;8241;48.786;9.250;2022-09-02T09:55:11;1.15;;;1.15;;
16266;SDS011;8241;48.786;9.250;2022-09-02T09:57:49;0.90;;;0.90;;
16266;SDS011;8241;48.786;9.250;2022-09-02T10:00:26;0.82;;;0.82;;
16266;SDS011;8241;48.786;9.250;2022-09-02T10:02:58;0.90;;;0.90;;
16266;SDS011;8241;48.786;9.250;2022-09-02T10:05:29;1.20;;;1.20;;
16266;SDS011;8241;48.786;9.250;2022-09-02T10:08:00;0.80;;;0.80;;
16266;SDS011;8241;48.786;9.250;2022-09-02T10:10:34;0.98;;;0.98;;
16266;SDS011;8241;48.786;9.250;2022-09-02T10:13:15;0.77;;;0.77;;
16266;SDS011;8241;48.786;9.250;2022-09-02T10:16:05;0.95;;;0.95;;
16266;SDS011;8241;48.786;9.250;2022-09-02T10:24:31;0.90;;;0.90;;
16266;SDS011;8241;48.786;9.250;2022-09-02T10:27:28;1.92;;;0.85;;
16266;SDS011;8241;48.786;9.250;2022-09-02T10:30:04;0.90;;;0.90;;
16266;SDS011;8241;48.786;9.250;2022-09-02T10:35:41;1.88;;;1.50;;
16266;SDS011;8241;48.786;9.250;2022-09-02T10:38:19;0.80;;;0.80;;
16266;SDS011;8241;48.786;9.250;2022-09-02T10:44:09;1.00;;;1.00;;
16266;SDS011;8241;48.786;9.250;2022-09-02T10:46:57;0.90;;;0.90;;
16266;SDS011;8241;48.786;9.250;2022-09-02T10:49:34;0.80;;;0.80;;
16266;SDS011;8241;48.786;9.250;2022-09-02T10:52:19;1.00;;;1.00;;
16266;SDS011;8241;48.786;9.250;2022-09-02T10:55:18;1.10;;;1.10;;
16266;SDS011;8241;48.786;9.250;2022-09-02T10:57:53;1.15;;;1.15;;
16266;SDS011;8241;48.786;9.250;2022-09-02T11:03:26;4.07;;;3.88;;
16266;SDS011;8241;48.786;9.250;2022-09-02T11:06:03;3.45;;;3.35;;
16266;SDS011;8241;48.786;9.250;2022-09-02T11:11:48;4.00;;;3.88;;
16266;SDS011;8241;48.786;9.250;2022-09-02T11:14:21;3.53;;;3.42;;
16266;SDS011;8241;48.786;9.250;2022-09-02T11:17:01;3.80;;;3.70;;
16266;SDS011;8241;48.786;9.250;2022-09-02T11:19:37;3.90;;;3.67;;
16266;SDS011;8241;48.786;9.250;2022-09-02T11:24:50;3.58;;;3.47;;
16266;SDS011;8241;48.786;9.250;2022-09-02T11:27:23;3.97;;;3.78;;
16266;SDS011;8241;48.786;9.250;2022-09-02T11:30:03;3.30;;;3.20;;
16266;SDS011;8241;48.786;9.250;2022-09-02T11:32:34;3.67;;;3.58;;
16266;SDS011;8241;48.786;9.250;2022-09-02T11:35:13;4.10;;;4.00;;
16266;SDS011;8241;48.786;9.250;2022-09-02T11:37:51;4.07;;;3.88;;
16266;SDS011;8241;48.786;9.250;2022-09-02T11:43:26;3.42;;;3.33;;
16266;SDS011;8241;48.786;9.250;2022-09-02T11:46:15;3.50;;;3.40;;
16266;SDS011;8241;48.786;9.250;2022-09-02T11:55:16;3.75;;;3.65;;
16266;SDS011;8241;48.786;9.250;2022-09-02T11:58:00;3.15;;;3.05;;
16266;SDS011;8241;48.786;9.250;2022-09-02T12:03:51;4.00;;;3.80;;
16266;SDS011;8241;48.786;9.250;2022-09-02T12:15:40;3.63;;;3.53;;
16266;SDS011;8241;48.786;9.250;2022-09-02T12:21:22;3.45;;;3.35;;
16266;SDS011;8241;48.786;9.250;2022-09-02T12:36:03;3.65;;;3.55;;
16266;SDS011;8241;48.786;9.250;2022-09-02T12:47:05;3.90;;;3.80;;
16266;SDS011;8241;48.786;9.250;2022-09-02T12:55:52;3.45;;;3.35;;
16266;SDS011;8241;48.786;9.250;2022-09-02T12:58:32;3.42;;;3.33;;
16266;SDS011;8241;48.786;9.250;2022-09-02T13:01:04;3.53;;;3.40;;
16266;SDS011;8241;48.786;9.250;2022-09-02T13:10:08;3.10;;;3.00;;
16266;SDS011;8241;48.786;9.250;2022-09-02T13:16:19;3.40;;;3.30;;
16266;SDS011;8241;48.786;9.250;2022-09-02T13:19:16;3.80;;;3.70;;
16266;SDS011;8241;48.786;9.250;2022-09-02T13:28:32;3.45;;;3.35;;
16266;SDS011;8241;48.786;9.250;2022-09-02T13:34:14;3.50;;;3.40;;
16266;SDS011;8241;48.786;9.250;2022-09-02T13:39:36;3.60;;;3.50;;
16266;SDS011;8241;48.786;9.250;2022-09-02T13:45:07;3.60;;;3.50;;
16266;SDS011;8241;48.786;9.250;2022-09-02T13:47:36;3.95;;;3.78;;
16266;SDS011;8241;48.786;9.250;2022-09-02T13:50:24;3.83;;;3.63;;
16266;SDS011;8241;48.786;9.250;2022-09-02T13:52:59;3.78;;;3.67;;
16266;SDS011;8241;48.786;9.250;2022-09-02T13:55:36;4.00;;;3.90;;
16266;SDS011;8241;48.786;9.250;2022-09-02T13:58:18;3.85;;;3.75;;
16266;SDS011;8241;48.786;9.250;2022-09-02T14:00:48;3.80;;;3.70;;
16266;SDS011;8241;48.786;9.250;2022-09-02T14:03:18;3.80;;;3.70;;
16266;SDS011;8241;48.786;9.250;2022-09-02T14:05:46;4.40;;;4.22;;
16266;SDS011;8241;48.786;9.250;2022-09-02T14:08:17;4.20;;;4.10;;
16266;SDS011;8241;48.786;9.250;2022-09-02T14:11:01;4.00;;;3.90;;
16266;SDS011;8241;48.786;9.250;2022-09-02T14:13:46;3.88;;;3.78;;
16266;SDS011;8241;48.786;9.250;2022-09-02T14:16:25;3.45;;;3.35;;
16266;SDS011;8241;48.786;9.250;2022-09-02T14:22:00;4.20;;;3.80;;
16266;SDS011;8241;48.786;9.250;2022-09-02T14:24:28;3.80;;;3.70;;
16266;SDS011;8241;48.786;9.250;2022-09-02T14:27:02;3.97;;;3.88;;
16266;SDS011;8241;48.786;9.250;2022-09-02T14:29:30;3.80;;;3.70;;
16266;SDS011;8241;48.786;9.250;2022-09-02T14:32:10;3.92;;;3.83;;
16266;SDS011;8241;48.786;9.250;2022-09-02T14:34:39;4.07;;;3.97;;
16266;SDS011;8241;48.786;9.250;2022-09-02T14:37:20;3.80;;;3.70;;
16266;SDS011;8241;48.786;9.250;2022-09-02T14:39:52;4.53;;;4.20;;
16266;SDS011;8241;48.786;9.250;2022-09-02T14:45:33;3.78;;;3.67;;
16266;SDS011;8241;48.786;9.250;2022-09-02T14:48:02;3.58;;;3.47;;
16266;SDS011;8241;48.786;9.250;2022-09-02T14:50:41;3.50;;;3.40;;
16266;SDS011;8241;48.786;9.250;2022-09-02T14:53:08;3.45;;;3.35;;
16266;SDS011;8241;48.786;9.250;2022-09-02T14:58:23;3.58;;;3.47;;
16266;SDS011;8241;48.786;9.250;2022-09-02T15:00:53;3.67;;;3.58;;
16266;SDS011;8241;48.786;9.250;2022-09-02T15:03:27;3.70;;;3.60;;
16266;SDS011;8241;48.786;9.250;2022-09-02T15:05:56;3.53;;;3.42;;
16266;SDS011;8241;48.786;9.250;2022-09-02T15:08:29;3.60;;;3.50;;
16266;SDS011;8241;48.786;9.250;2022-09-02T15:10:59;3.90;;;3.80;;
16266;SDS011;8241;48.786;9.250;2022-09-02T15:13:27;3.83;;;3.72;;
16266;SDS011;8241;48.786;9.250;2022-09-02T15:15:59;3.65;;;3.55;;
16266;SDS011;8241;48.786;9.250;2022-09-02T15:18:27;3.80;;;3.70;;
16266;SDS011;8241;48.786;9.250;2022-09-02T15:21:00;3.75;;;3.65;;
16266;SDS011;8241;48.786;9.250;2022-09-02T15:26:17;4.07;;;3.97;;
16266;SDS011;8241;48.786;9.250;2022-09-02T15:28:50;3.85;;;3.75;;
16266;SDS011;8241;48.786;9.250;2022-09-02T15:34:13;3.65;;;3.55;;
16266;SDS011;8241;48.786;9.250;2022-09-02T15:36:43;3.55;;;3.45;;
16266;SDS011;8241;48.786;9.250;2022-09-02T15:39:29;4.05;;;3.95;;
16266;SDS011;8241;48.786;9.250;2022-09-02T15:42:06;3.78;;;3.67;;
16266;SDS011;8241;48.786;9.250;2022-09-02T15:44:35;3.88;;;3.78;;
16266;SDS011;8241;48.786;9.250;2022-09-02T15:56:40;3.50;;;3.40;;
16266;SDS011;8241;48.786;9.250;2022-09-02T15:59:09;3.90;;;3.80;;
16266;SDS011;8241;48.786;9.250;2022-09-02T16:01:39;4.10;;;4.00;;
16266;SDS011;8241;48.786;9.250;2022-09-02T16:04:06;4.20;;;4.10;;
16266;SDS011;8241;48.786;9.250;2022-09-02T16:06:36;3.60;;;3.50;;
16266;SDS011;8241;48.786;9.250;2022-09-02T16:09:14;3.50;;;3.40;;
16266;SDS011;8241;48.786;9.250;2022-09-02T16:11:42;4.20;;;4.00;;
16266;SDS011;8241;48.786;9.250;2022-09-02T16:14:20;3.65;;;3.55;;
16266;SDS011;8241;48.786;9.250;2022-09-02T16:16:48;4.00;;;3.90;;
16266;SDS011;8241;48.786;9.250;2022-09-02T16:19:17;3.90;;;3.80;;
16266;SDS011;8241;48.786;9.250;2022-09-02T16:21:46;3.90;;;3.80;;
16266;SDS011;8241;48.786;9.250;2022-09-02T16:24:13;4.00;;;3.90;;
16266;SDS011;8241;48.786;9.250;2022-09-02T16:26:42;4.10;;;3.90;;
16266;SDS011;8241;48.786;9.250;2022-09-02T16:32:56;3.15;;;3.05;;
16266;SDS011;8241;48.786;9.250;2022-09-02T16:35:23;4.10;;;3.90;;
16266;SDS011;8241;48.786;9.250;2022-09-02T16:37:51;3.90;;;3.80;;
16266;SDS011;8241;48.786;9.250;2022-09-02T16:40:21;3.80;;;3.70;;
16266;SDS011;8241;48.786;9.250;2022-09-02T16:42:49;4.50;;;4.30;;
16266;SDS011;8241;48.786;9.250;2022-09-02T16:45:16;3.80;;;3.70;;
16266;SDS011;8241;48.786;9.250;2022-09-02T16:47:43;4.20;;;4.10;;
16266;SDS011;8241;48.786;9.250;2022-09-02T16:50:11;4.03;;;3.90;;
16266;SDS011;8241;48.786;9.250;2022-09-02T16:52:38;3.60;;;3.50;;
16266;SDS011;8241;48.786;9.250;2022-09-02T16:55:06;3.60;;;3.50;;
16266;SDS011;8241;48.786;9.250;2022-09-02T16:57:34;3.78;;;3.67;;
16266;SDS011;8241;48.786;9.250;2022-09-02T17:00:01;3.70;;;3.60;;
16266;SDS011;8241;48.786;9.250;2022-09-02T17:02:29;3.40;;;3.30;;
16266;SDS011;8241;48.786;9.250;2022-09-02T17:07:27;3.40;;;3.30;;
16266;SDS011;8241;48.786;9.250;2022-09-02T17:09:54;7.95;;;4.82;;
16266;SDS011;8241;48.786;9.250;2022-09-02T17:12:26;8.98;;;3.78;;
16266;SDS011;8241;48.786;9.250;2022-09-02T17:14:53;3.60;;;3.50;;
16266;SDS011;8241;48.786;9.250;2022-09-02T17:17:20;3.13;;;3.03;;
16266;SDS011;8241;48.786;9.250;2022-09-02T17:19:46;3.70;;;3.60;;
16266;SDS011;8241;48.786;9.250;2022-09-02T17:22:17;3.50;;;3.40;;
16266;SDS011;8241;48.786;9.250;2022-09-02T17:24:44;3.80;;;3.70;;
16266;SDS011;8241;48.786;9.250;2022-09-02T17:27:11;3.17;;;3.08;;
16266;SDS011;8241;48.786;9.250;2022-09-02T17:33:27;3.60;;;3.50;;
16266;SDS011;8241;48.786;9.250;2022-09-02T17:39:03;3.95;;;3.65;;
16266;SDS011;8241;48.786;9.250;2022-09-02T17:41:37;3.15;;;3.05;;
16266;SDS011;8241;48.786;9.250;2022-09-02T17:44:19;3.20;;;3.10;;
16266;SDS011;8241;48.786;9.250;2022-09-02T17:46:47;2.90;;;2.80;;
16266;SDS011;8241;48.786;9.250;2022-09-02T17:49:25;3.13;;;3.03;;
16266;SDS011;8241;48.786;9.250;2022-09-02T17:51:54;3.92;;;3.72;;
16266;SDS011;8241;48.786;9.250;2022-09-02T17:54:36;4.30;;;4.07;;
16266;SDS011;8241;48.786;9.250;2022-09-02T17:57:09;3.60;;;3.50;;
16266;SDS011;8241;48.786;9.250;2022-09-02T18:08:35;3.03;;;2.92;;